Time;durP1;ratioP1;P1;durP2;ratioP2;P2;SDS_P1;SDS_P2;PMS_P1;PMS_P2;Temp;Humidity;BMP_temperature;BMP_pressure;BME280_temperature;BME280_humidity;BME280_pressure;Samples;Min_cycle;Max_cycle;Signal;HPM_P1;HPM_P2
2023/09/26 00:01:09;;;;;;;;;;;;;;;25.09;68.90;101530.19;5047338;28;20294;-89
2023/09/26 00:03:35;;;;;;;;;;;;;;;25.12;68.62;101527.50;5064316;28;20007;-89
2023/09/26 00:06:28;;;;;;;;;;;;;;;25.11;68.81;101525.75;5049747;28;19916;-89
2023/09/26 00:08:53;;;;;;;;;;;;;;;25.09;68.79;101532.84;5064651;28;19967;-88
2023/09/26 00:11:19;;;;;;;;;;;;;;;25.09;68.92;101527.50;5068733;28;19968;-89
2023/09/26 00:13:45;;;;;;;;;;;;;;;25.12;68.65;101532.88;5069042;28;20305;-87
2023/09/26 00:16:11;;;;;;;;;;;;;;;25.11;68.63;101527.53;5068417;28;19940;-88
2023/09/26 00:18:40;;;;;;;;;;;;;;;25.11;68.78;101528.41;5053677;28;19912;-88
2023/09/26 00:21:05;;;;;;;;;;;;;;;25.11;68.65;101528.41;5065364;28;19916;-88
2023/09/26 00:23:31;;;;;;;;;;;;;;;25.09;68.83;101530.19;5049976;28;19970;-87
2023/09/26 00:25:57;;;;;;;;;;;;;;;25.13;68.56;101531.09;5048001;28;20408;-89
2023/09/26 00:28:23;;;;;;;;;;;;;;;25.08;68.65;101543.53;5062418;28;20011;-89
2023/09/26 00:30:48;;;;;;;;;;;;;;;25.10;68.84;101529.28;5054982;28;19978;-89
2023/09/26 00:33:29;;;;;;;;;;;;;;;25.08;68.89;101533.75;5061954;28;19916;-90
2023/09/26 00:36:13;;;;;;;;;;;;;;;25.11;68.66;101535.56;5060755;28;19966;-88
2023/09/26 00:38:39;;;;;;;;;;;;;;;25.08;68.69;101536.44;5049808;28;19920;-90
2023/09/26 00:41:19;;;;;;;;;;;;;;;25.08;68.74;101536.44;5065051;28;19917;-89
2023/09/26 00:43:48;;;;;;;;;;;;;;;25.11;68.76;101530.22;5065570;28;20248;-87
2023/09/26 00:46:13;;;;;;;;;;;;;;;25.10;68.67;101533.75;5061486;28;20015;-87
2023/09/26 00:48:39;;;;;;;;;;;;;;;25.08;68.73;101533.75;5069125;28;20004;-89
2023/09/26 00:51:05;;;;;;;;;;;;;;;25.12;68.62;101526.63;5054904;28;20313;-87
2023/09/26 00:53:30;;;;;;;;;;;;;;;25.07;68.67;101531.94;5053554;28;19916;-88
2023/09/26 00:55:57;;;;;;;;;;;;;;;25.10;68.57;101525.72;5064122;28;20398;-89
2023/09/26 00:58:23;;;;;;;;;;;;;;;25.08;68.58;101528.41;5072354;28;20310;-87
2023/09/26 01:00:53;;;;;;;;;;;;;;;25.09;68.85;101530.19;5071021;28;19924;-88
2023/09/26 01:03:19;;;;;;;;;;;;;;;25.11;68.66;101524.84;5072316;28;19921;-87
2023/09/26 01:05:44;;;;;;;;;;;;;;;25.09;68.79;101527.50;5071457;28;19916;-89
2023/09/26 01:08:09;;;;;;;;;;;;;;;25.11;68.44;101532.88;5071668;28;19928;-89
2023/09/26 01:10:35;;;;;;;;;;;;;;;25.09;68.75;101540.88;5072463;28;19917;-88
2023/09/26 01:13:01;;;;;;;;;;;;;;;25.09;68.51;101543.56;5054596;28;19916;-89
2023/09/26 01:15:44;;;;;;;;;;;;;;;25.06;68.57;101535.53;5072036;28;19923;-88
2023/09/26 01:18:15;;;;;;;;;;;;;;;25.09;68.49;101537.31;5072646;28;19916;-89
2023/09/26 01:20:43;;;;;;;;;;;;;;;25.05;68.43;101533.72;5072146;28;19923;-90
2023/09/26 01:23:09;;;;;;;;;;;;;;;25.06;68.61;101535.53;5072286;28;20397;-89
2023/09/26 01:25:35;;;;;;;;;;;;;;;25.09;68.50;101531.97;5053685;28;20433;-89
2023/09/26 01:28:18;;;;;;;;;;;;;;;25.10;68.45;101533.75;5072230;28;20008;-88
2023/09/26 01:30:44;;;;;;;;;;;;;;;25.07;68.81;101534.63;5070640;28;19917;-88
2023/09/26 01:33:12;;;;;;;;;;;;;;;25.05;68.60;101528.38;5055016;28;19916;-87
2023/09/26 01:35:38;;;;;;;;;;;;;;;25.07;68.57;101523.94;5052813;28;19951;-88
2023/09/26 01:38:03;;;;;;;;;;;;;;;25.07;68.35;101518.59;5071996;28;19966;-89
2023/09/26 01:40:29;;;;;;;;;;;;;;;25.08;68.42;101519.47;5053739;28;19951;-88
2023/09/26 01:42:54;;;;;;;;;;;;;;;25.09;68.38;101519.50;5066204;28;19966;-88
2023/09/26 01:45:20;;;;;;;;;;;;;;;25.07;68.57;101521.25;5069292;28;19934;-88
2023/09/26 01:47:49;;;;;;;;;;;;;;;25.04;68.72;101523.94;5069821;28;19921;-88
2023/09/26 01:50:19;;;;;;;;;;;;;;;25.06;68.72;101527.50;5068638;28;20420;-88
2023/09/26 01:52:44;;;;;;;;;;;;;;;25.05;68.88;101528.38;5066756;28;19917;-89
2023/09/26 01:55:14;;;;;;;;;;;;;;;25.07;68.76;101523.94;5070077;28;19912;-87
2023/09/26 01:57:39;;;;;;;;;;;;;;;25.03;68.43;101522.13;5070900;28;20365;-88
2023/09/26 02:00:10;;;;;;;;;;;;;;;25.06;68.50;101527.50;5071345;28;19916;-88
2023/09/26 02:02:36;;;;;;;;;;;;;;;25.03;68.77;101526.59;5068261;28;19990;-88
2023/09/26 02:05:04;;;;;;;;;;;;;;;25.05;68.47;101532.84;5072151;28;19916;-88
2023/09/26 02:07:29;;;;;;;;;;;;;;;25.04;68.58;101523.94;5054156;28;19977;-88
2023/09/26 02:09:55;;;;;;;;;;;;;;;25.07;68.26;101523.06;5072664;28;20390;-89
2023/09/26 02:12:20;;;;;;;;;;;;;;;25.05;68.41;101528.38;5055618;28;19913;-86
2023/09/26 02:14:46;;;;;;;;;;;;;;;25.06;68.37;101524.84;5072132;28;19913;-88
2023/09/26 02:17:11;;;;;;;;;;;;;;;25.07;68.33;101531.06;5071912;28;19912;-87
2023/09/26 02:19:39;;;;;;;;;;;;;;;25.05;68.50;101528.38;5070170;28;19924;-88
2023/09/26 02:22:04;;;;;;;;;;;;;;;25.04;68.69;101520.34;5072270;28;19912;-87
2023/09/26 02:24:31;;;;;;;;;;;;;;;25.01;68.56;101523.88;5053705;28;19913;-86
2023/09/26 02:26:57;;;;;;;;;;;;;;;24.98;68.65;101523.88;5071700;28;19917;-89
2023/09/26 02:29:23;;;;;;;;;;;;;;;25.04;68.82;101526.59;5070203;28;19920;-87
2023/09/26 02:31:49;;;;;;;;;;;;;;;25.06;68.38;101527.50;5071951;28;20312;-86
2023/09/26 02:34:15;;;;;;;;;;;;;;;25.02;68.52;101524.78;5069779;28;19924;-86
2023/09/26 02:36:40;;;;;;;;;;;;;;;24.99;68.75;101526.53;5072253;28;19916;-87
2023/09/26 02:39:08;;;;;;;;;;;;;;;25.02;68.77;101532.78;5070336;28;20032;-86
2023/09/26 02:41:33;;;;;;;;;;;;;;;25.02;68.72;101536.38;5070924;28;19917;-87
2023/09/26 02:43:59;;;;;;;;;;;;;;;25.02;68.63;101538.16;5063458;28;20007;-87
2023/09/26 02:46:24;;;;;;;;;;;;;;;24.97;68.77;101540.78;5070205;28;20001;-88
2023/09/26 02:48:50;;;;;;;;;;;;;;;25.03;68.78;101539.94;5052428;28;19920;-88
2023/09/26 02:51:15;;;;;;;;;;;;;;;25.02;68.75;101548.84;5072513;28;19913;-89
2023/09/26 02:53:41;;;;;;;;;;;;;;;24.96;68.78;101544.34;5067396;28;19950;-88
2023/09/26 02:56:10;;;;;;;;;;;;;;;25.01;68.66;101547.94;5070431;28;19924;-86
2023/09/26 02:58:42;;;;;;;;;;;;;;;25.06;68.44;101548.88;5067326;28;19917;-89
2023/09/26 03:01:08;;;;;;;;;;;;;;;24.99;68.37;101547.03;5054610;28;20004;-88
2023/09/26 03:03:33;;;;;;;;;;;;;;;24.98;68.59;101550.63;5070158;28;20014;-88
2023/09/26 03:05:59;;;;;;;;;;;;;;;25.03;68.44;101553.31;5069921;28;19920;-87
2023/09/26 03:08:24;;;;;;;;;;;;;;;25.02;68.24;101556.84;5063363;28;19921;-88
2023/09/26 03:10:50;;;;;;;;;;;;;;;24.98;68.56;101556.84;5069987;28;19931;-89
2023/09/26 03:13:15;;;;;;;;;;;;;;;25.01;68.54;101558.63;5068630;28;19920;-88
2023/09/26 03:15:42;;;;;;;;;;;;;;;25.00;68.46;101559.53;5051136;28;19919;-88
2023/09/26 03:18:07;;;;;;;;;;;;;;;24.96;68.64;101565.75;5070287;28;20006;-90
2023/09/26 03:20:36;;;;;;;;;;;;;;;24.96;68.64;101555.06;5070479;28;20002;-88
2023/09/26 03:23:02;;;;;;;;;;;;;;;24.96;68.09;101560.41;5052880;28;19924;-86
2023/09/26 03:25:30;;;;;;;;;;;;;;;24.93;68.40;101563.03;5070634;28;19974;-87
2023/09/26 03:27:58;;;;;;;;;;;;;;;24.97;67.98;101570.19;5068717;28;19923;-88
2023/09/26 03:30:23;;;;;;;;;;;;;;;24.96;68.16;101560.41;5052429;28;19966;-87
2023/09/26 03:32:49;;;;;;;;;;;;;;;24.95;68.25;101563.94;5070681;28;20361;-87
2023/09/26 03:35:14;;;;;;;;;;;;;;;24.95;68.19;101570.16;5070735;28;19916;-88
2023/09/26 03:37:40;;;;;;;;;;;;;;;24.94;68.08;101565.72;5070869;28;19919;-88
2023/09/26 03:40:05;;;;;;;;;;;;;;;24.96;68.24;101568.41;5065501;28;20407;-87
2023/09/26 03:42:31;;;;;;;;;;;;;;;24.96;68.25;101569.28;5068523;28;19923;-89
2023/09/26 03:44:56;;;;;;;;;;;;;;;24.97;68.07;101568.41;5065199;28;20514;-88
2023/09/26 03:47:22;;;;;;;;;;;;;;;24.91;68.52;101572.81;5064502;28;19931;-88
2023/09/26 03:49:51;;;;;;;;;;;;;;;24.89;68.51;101570.16;5051722;28;19923;-89
2023/09/26 03:52:17;;;;;;;;;;;;;;;24.91;68.63;101575.47;5068941;28;19916;-88
2023/09/26 03:54:43;;;;;;;;;;;;;;;24.95;68.30;101578.19;5068950;28;19959;-88
2023/09/26 03:57:08;;;;;;;;;;;;;;;24.93;68.33;101576.38;5071649;28;20001;-88
2023/09/26 03:59:34;;;;;;;;;;;;;;;24.93;68.46;101593.34;5068347;28;19923;-88
2023/09/26 04:01:59;;;;;;;;;;;;;;;24.91;68.43;101591.50;5067649;28;20321;-89
2023/09/26 04:04:25;;;;;;;;;;;;;;;24.90;68.40;101582.59;5069161;28;20008;-89
2023/09/26 04:06:50;;;;;;;;;;;;;;;24.87;68.67;101589.69;5062673;28;19928;-87
2023/09/26 04:09:16;;;;;;;;;;;;;;;24.85;68.75;101584.38;5052286;28;19917;-89
2023/09/26 04:11:41;;;;;;;;;;;;;;;24.91;68.72;101594.19;5051634;28;19920;-88
2023/09/26 04:14:06;;;;;;;;;;;;;;;24.92;68.18;101591.53;5051600;28;19967;-88
2023/09/26 04:16:34;;;;;;;;;;;;;;;24.92;68.55;101596.00;5052649;28;19983;-91
2023/09/26 04:19:00;;;;;;;;;;;;;;;24.89;68.49;101598.63;5059051;28;20386;-89
2023/09/26 04:21:26;;;;;;;;;;;;;;;24.88;68.72;101604.84;5074401;28;20003;-88
2023/09/26 04:23:51;;;;;;;;;;;;;;;24.93;68.42;101605.78;5075755;28;20021;-88
2023/09/26 04:26:18;;;;;;;;;;;;;;;24.93;68.42;101611.13;5074589;28;19912;-89
2023/09/26 04:28:46;;;;;;;;;;;;;;;24.93;68.23;101605.78;5070225;28;19927;-88
2023/09/26 04:31:16;;;;;;;;;;;;;;;24.92;68.61;101604.88;5074275;28;19912;-88
2023/09/26 04:33:42;;;;;;;;;;;;;;;24.90;68.55;101605.78;5074222;28;19942;-88
2023/09/26 04:36:15;;;;;;;;;;;;;;;24.92;68.28;101596.00;5068441;28;20012;-90
2023/09/26 04:38:41;;;;;;;;;;;;;;;24.92;68.67;101594.19;5058697;28;19917;-90
2023/09/26 04:41:07;;;;;;;;;;;;;;;24.91;68.56;101604.88;5058020;28;20381;-89
2023/09/26 04:43:42;;;;;;;;;;;;;;;24.93;68.28;101611.13;5074859;28;19912;-91
2023/09/26 04:46:14;;;;;;;;;;;;;;;24.93;68.34;101611.13;5074240;28;19921;-90
2023/09/26 04:48:40;;;;;;;;;;;;;;;24.88;68.71;101597.72;5073801;28;19971;-90
2023/09/26 04:51:08;;;;;;;;;;;;;;;24.88;68.48;101607.53;5074931;28;19912;-90
2023/09/26 04:53:34;;;;;;;;;;;;;;;24.88;68.39;101613.75;5051686;28;19925;-89
2023/09/26 04:56:03;;;;;;;;;;;;;;;24.90;68.50;101613.78;5073068;28;19956;-89
2023/09/26 04:58:30;;;;;;;;;;;;;;;24.90;68.76;101611.13;5052253;28;19963;-90
2023/09/26 05:00:56;;;;;;;;;;;;;;;24.90;68.41;101614.66;5053541;28;19948;-89
2023/09/26 05:03:22;;;;;;;;;;;;;;;24.90;68.63;101616.47;5071495;28;19916;-89
2023/09/26 05:05:49;;;;;;;;;;;;;;;24.83;68.79;101625.28;5074356;28;19920;-88
2023/09/26 05:08:15;;;;;;;;;;;;;;;24.87;68.82;101620.00;5058336;28;20416;-87
2023/09/26 05:10:41;;;;;;;;;;;;;;;24.90;68.68;101624.47;5072423;28;20298;-86
2023/09/26 05:13:07;;;;;;;;;;;;;;;24.88;68.42;101624.44;5071886;28;19924;-86
2023/09/26 05:15:33;;;;;;;;;;;;;;;24.91;68.68;101634.25;5075618;28;19916;-86
2023/09/26 05:17:58;;;;;;;;;;;;;;;24.87;68.56;101638.72;5054386;28;19924;-87
2023/09/26 05:20:24;;;;;;;;;;;;;;;24.91;68.37;101635.19;5075023;28;19951;-86
2023/09/26 05:22:49;;;;;;;;;;;;;;;24.94;68.63;101639.66;5074294;28;19951;-88
2023/09/26 05:25:15;;;;;;;;;;;;;;;24.89;68.58;101634.28;5067063;28;19917;-86
2023/09/26 05:27:41;;;;;;;;;;;;;;;24.90;68.46;101633.38;5056747;28;19928;-87
2023/09/26 05:30:07;;;;;;;;;;;;;;;24.88;68.43;101627.13;5072013;28;19916;-88
2023/09/26 05:32:33;;;;;;;;;;;;;;;24.87;68.81;101627.09;5072304;28;20282;-85
2023/09/26 05:34:58;;;;;;;;;;;;;;;24.88;68.61;101632.47;5077258;28;20697;-86
2023/09/26 05:37:24;;;;;;;;;;;;;;;24.88;68.40;101635.13;5072709;28;20007;-86
2023/09/26 05:39:49;;;;;;;;;;;;;;;24.88;68.65;101640.47;5074138;28;20017;-86
2023/09/26 05:42:15;;;;;;;;;;;;;;;24.89;68.71;101646.72;5072375;28;19912;-86
2023/09/26 05:44:40;;;;;;;;;;;;;;;24.87;68.78;101644.06;5053856;28;19916;-86
2023/09/26 05:47:06;;;;;;;;;;;;;;;24.90;68.75;101651.19;5087112;28;19920;-87
2023/09/26 05:49:31;;;;;;;;;;;;;;;24.87;68.91;101643.13;5094276;28;19918;-87
2023/09/26 05:51:57;;;;;;;;;;;;;;;24.89;68.74;101649.38;5093819;28;20274;-88
2023/09/26 05:54:22;;;;;;;;;;;;;;;24.87;68.85;101652.06;5076019;28;19919;-87
2023/09/26 05:56:48;;;;;;;;;;;;;;;24.90;68.94;101648.53;5075479;28;19916;-88
2023/09/26 05:59:13;;;;;;;;;;;;;;;24.89;68.69;101638.69;5076082;28;19920;-89
2023/09/26 06:01:39;;;;;;;;;;;;;;;24.87;68.89;101652.06;5059083;28;19916;-89
2023/09/26 06:04:04;;;;;;;;;;;;;;;24.87;68.93;101656.50;5092487;28;19997;-89
2023/09/26 06:06:32;;;;;;;;;;;;;;;24.90;68.94;101646.75;5075920;28;20408;-89
2023/09/26 06:08:58;;;;;;;;;;;;;;;24.89;68.66;101646.72;5058843;28;20411;-89
2023/09/26 06:11:23;;;;;;;;;;;;;;;24.92;68.86;101658.34;5058806;28;19991;-88
2023/09/26 06:13:48;;;;;;;;;;;;;;;24.92;68.73;101662.78;5094069;28;19923;-89
2023/09/26 06:16:14;;;;;;;;;;;;;;;24.87;68.63;101657.41;5075470;28;19965;-89
2023/09/26 06:18:39;;;;;;;;;;;;;;;24.88;68.62;101652.94;5093763;28;19912;-88
2023/09/26 06:21:06;;;;;;;;;;;;;;;24.92;68.44;101653.00;5074005;28;20053;-88
2023/09/26 06:23:32;;;;;;;;;;;;;;;24.93;68.82;101646.78;5075695;28;19919;-88
2023/09/26 06:26:00;;;;;;;;;;;;;;;24.93;68.83;101645.88;5072088;28;19999;-88
2023/09/26 06:28:27;;;;;;;;;;;;;;;24.94;68.64;101645.88;5071885;28;19924;-88
2023/09/26 06:30:52;;;;;;;;;;;;;;;24.95;68.47;101642.31;5075044;28;19938;-88
2023/09/26 06:33:18;;;;;;;;;;;;;;;24.94;68.72;101645.88;5075780;28;20353;-88
2023/09/26 06:35:44;;;;;;;;;;;;;;;24.96;68.77;101649.47;5063810;28;19966;-87
2023/09/26 06:38:10;;;;;;;;;;;;;;;24.96;68.46;101644.13;5075619;28;19916;-88
2023/09/26 06:40:35;;;;;;;;;;;;;;;24.98;68.45;101645.03;5059551;28;19912;-87
2023/09/26 06:43:02;;;;;;;;;;;;;;;24.98;68.55;101646.81;5076402;28;19919;-88
2023/09/26 06:45:28;;;;;;;;;;;;;;;24.96;68.77;101653.94;5076007;28;19919;-88
2023/09/26 06:47:53;;;;;;;;;;;;;;;24.93;68.76;101651.19;5068590;28;19920;-88
2023/09/26 06:50:19;;;;;;;;;;;;;;;24.95;68.65;101644.09;5092994;28;20429;-86
2023/09/26 06:52:44;;;;;;;;;;;;;;;24.94;68.67;101642.31;5093113;28;19995;-86
2023/09/26 06:55:10;;;;;;;;;;;;;;;24.96;68.31;101646.78;5074602;28;19916;-89
2023/09/26 06:57:36;;;;;;;;;;;;;;;24.97;68.31;101651.25;5093119;28;19912;-88
2023/09/26 07:00:05;;;;;;;;;;;;;;;24.95;68.45;101649.44;5092350;28;19919;-87
2023/09/26 07:02:31;;;;;;;;;;;;;;;24.98;68.46;101645.03;5065744;28;19917;-87
2023/09/26 07:04:57;;;;;;;;;;;;;;;24.97;68.42;101650.34;5090901;28;19912;-88
2023/09/26 07:07:23;;;;;;;;;;;;;;;24.98;68.45;101650.38;5074666;28;20523;-89
2023/09/26 07:09:48;;;;;;;;;;;;;;;24.98;68.64;101657.50;5074623;28;20296;-87
2023/09/26 07:12:14;;;;;;;;;;;;;;;25.00;68.36;101658.41;5074363;28;20015;-88
2023/09/26 07:14:39;;;;;;;;;;;;;;;24.97;68.86;101655.69;5092408;28;19965;-87
2023/09/26 07:17:07;;;;;;;;;;;;;;;24.99;68.43;101661.94;5074031;28;19912;-86
2023/09/26 07:19:33;;;;;;;;;;;;;;;24.98;68.45;101650.38;5056433;28;20294;-87
2023/09/26 07:21:58;;;;;;;;;;;;;;;24.98;68.54;101660.19;5074318;28;19916;-86
2023/09/26 07:24:24;;;;;;;;;;;;;;;24.99;68.76;101661.94;5092137;28;20449;-86
2023/09/26 07:26:50;;;;;;;;;;;;;;;24.99;68.54;101657.50;5072809;28;19924;-87
2023/09/26 07:29:16;;;;;;;;;;;;;;;24.99;68.85;101657.50;5074384;28;19920;-87
2023/09/26 07:31:41;;;;;;;;;;;;;;;24.99;68.62;101667.28;5074488;28;20011;-87
2023/09/26 07:34:07;;;;;;;;;;;;;;;24.99;68.93;101675.31;5074055;28;19917;-87
2023/09/26 07:36:33;;;;;;;;;;;;;;;25.00;68.84;101677.13;5091924;28;19912;-87
2023/09/26 07:38:59;;;;;;;;;;;;;;;24.99;68.61;101661.94;5091889;28;19915;-87
2023/09/26 07:41:25;;;;;;;;;;;;;;;24.99;68.57;101676.19;5074357;28;19912;-87
2023/09/26 07:43:50;;;;;;;;;;;;;;;25.02;68.91;101674.44;5072583;28;20033;-88
2023/09/26 07:46:16;;;;;;;;;;;;;;;25.01;68.74;101670.88;5050430;28;19921;-87
2023/09/26 07:48:42;;;;;;;;;;;;;;;25.04;68.69;101675.34;5068441;28;19916;-87
2023/09/26 07:51:08;;;;;;;;;;;;;;;24.99;69.00;101669.97;5071403;28;20429;-86
2023/09/26 07:53:34;;;;;;;;;;;;;;;24.99;68.66;101665.50;5070361;28;19987;-87
2023/09/26 07:55:59;;;;;;;;;;;;;;;24.94;68.74;101666.38;5053368;28;19966;-87
2023/09/26 07:58:25;;;;;;;;;;;;;;;24.97;68.57;101674.41;5069117;28;19912;-87
2023/09/26 08:00:52;;;;;;;;;;;;;;;24.90;68.92;101669.91;5070440;28;19962;-87
2023/09/26 08:03:18;;;;;;;;;;;;;;;24.91;68.68;101672.59;5068887;28;20447;-88
2023/09/26 08:05:43;;;;;;;;;;;;;;;24.90;68.71;101683.25;5071652;28;19916;-87
2023/09/26 08:08:09;;;;;;;;;;;;;;;24.92;68.86;101681.50;5071192;28;19975;-87
2023/09/26 08:10:38;;;;;;;;;;;;;;;24.91;68.98;101680.59;5064194;28;19960;-87
2023/09/26 08:13:03;;;;;;;;;;;;;;;24.92;68.35;101670.81;5068625;28;20458;-87
2023/09/26 08:15:31;;;;;;;;;;;;;;;24.89;68.62;101674.34;5070409;28;19920;-87
2023/09/26 08:17:56;;;;;;;;;;;;;;;24.88;68.82;101674.34;5070857;28;19912;-88
2023/09/26 08:20:24;;;;;;;;;;;;;;;24.85;68.69;101666.28;5070053;28;20003;-88
2023/09/26 08:22:49;;;;;;;;;;;;;;;24.88;68.77;101679.66;5053950;28;20451;-87
2023/09/26 08:25:15;;;;;;;;;;;;;;;24.87;68.49;101684.13;5070269;28;19919;-89
2023/09/26 08:27:40;;;;;;;;;;;;;;;24.85;68.79;101692.97;5067633;28;19917;-89
2023/09/26 08:30:07;;;;;;;;;;;;;;;24.87;68.66;101683.22;5062132;28;19919;-88
2023/09/26 08:32:37;;;;;;;;;;;;;;;24.91;68.66;101691.31;5070298;28;19913;-87
2023/09/26 08:35:02;;;;;;;;;;;;;;;24.93;68.37;101701.97;5053901;28;19912;-88
2023/09/26 08:37:28;;;;;;;;;;;;;;;24.90;68.55;101699.28;5069178;28;20058;-87
2023/09/26 08:39:53;;;;;;;;;;;;;;;24.89;68.85;101706.41;5070826;28;20079;-88
2023/09/26 08:42:21;;;;;;;;;;;;;;;24.93;68.44;101704.66;5070572;28;20403;-88
2023/09/26 08:44:46;;;;;;;;;;;;;;;24.89;68.88;101708.16;5070130;28;19913;-87
2023/09/26 08:47:12;;;;;;;;;;;;;;;24.91;68.82;101704.66;5083980;28;19927;-87
2023/09/26 08:49:37;;;;;;;;;;;;;;;24.92;68.76;101703.75;5073548;28;19912;-87
2023/09/26 08:52:04;;;;;;;;;;;;;;;24.94;68.35;101695.78;5073301;28;19938;-87
2023/09/26 08:54:30;;;;;;;;;;;;;;;24.89;68.36;101698.41;5073796;28;19916;-87
2023/09/26 08:56:55;;;;;;;;;;;;;;;24.89;68.16;101703.75;5072876;28;19913;-87
2023/09/26 08:59:21;;;;;;;;;;;;;;;24.92;68.12;101703.75;5073269;28;19912;-86
2023/09/26 09:01:46;;;;;;;;;;;;;;;24.90;68.34;101713.53;5055278;28;19916;-87
2023/09/26 09:04:12;;;;;;;;;;;;;;;24.95;68.26;101713.56;5073365;28;19912;-88
2023/09/26 09:06:38;;;;;;;;;;;;;;;24.91;67.98;101704.66;5074333;28;19955;-88
2023/09/26 09:09:08;;;;;;;;;;;;;;;24.90;67.90;101709.97;5094949;28;19923;-87
2023/09/26 09:11:33;;;;;;;;;;;;;;;24.91;68.21;101711.75;5076811;28;19912;-88
2023/09/26 09:13:59;;;;;;;;;;;;;;;24.92;67.98;101710.88;5094890;28;20080;-87
2023/09/26 09:16:24;;;;;;;;;;;;;;;24.94;67.91;101701.13;5076526;28;20382;-86
2023/09/26 09:18:50;;;;;;;;;;;;;;;24.88;67.84;101707.28;5088886;28;19928;-87
2023/09/26 09:21:31;;;;;;;;;;;;;;;24.96;67.84;101702.91;5074915;28;19959;-88
2023/09/26 09:24:01;;;;;;;;;;;;;;;24.91;67.72;101706.41;5094360;28;19912;-86
2023/09/26 09:26:32;;;;;;;;;;;;;;;24.91;67.82;101709.09;5094538;28;19923;-87
2023/09/26 09:28:59;;;;;;;;;;;;;;;24.91;67.62;101712.69;5076409;28;19916;-88
2023/09/26 09:31:24;;;;;;;;;;;;;;;24.92;67.51;101716.22;5076568;28;19912;-88
2023/09/26 09:33:52;;;;;;;;;;;;;;;24.90;67.52;101716.22;5059569;28;20305;-86
2023/09/26 09:36:18;;;;;;;;;;;;;;;24.92;67.56;101708.22;5056897;28;19912;-85
2023/09/26 09:38:43;;;;;;;;;;;;;;;24.93;67.64;101704.66;5075813;28;19916;-88
2023/09/26 09:41:09;;;;;;;;;;;;;;;24.92;67.63;101700.19;5076242;28;20344;-89
2023/09/26 09:43:35;;;;;;;;;;;;;;;24.93;67.70;101710.00;5093947;28;19962;-89
2023/09/26 09:46:04;;;;;;;;;;;;;;;24.92;67.72;101705.53;5076262;28;19928;-87
2023/09/26 09:48:30;;;;;;;;;;;;;;;24.94;67.99;101709.13;5076166;28;20374;-88
2023/09/26 09:50:56;;;;;;;;;;;;;;;24.95;67.84;101706.44;5059918;28;19973;-89
2023/09/26 09:53:24;;;;;;;;;;;;;;;24.96;68.01;101705.59;5092725;28;19916;-88
2023/09/26 09:55:51;;;;;;;;;;;;;;;24.96;67.79;101707.38;5076506;28;20435;-88
2023/09/26 09:58:17;;;;;;;;;;;;;;;24.97;67.94;101703.81;5093881;28;20011;-87
2023/09/26 10:00:43;;;;;;;;;;;;;;;24.95;68.01;101705.56;5059243;28;19940;-87
2023/09/26 10:03:10;;;;;;;;;;;;;;;24.97;67.61;101701.13;5093159;28;19919;-87
2023/09/26 10:05:39;;;;;;;;;;;;;;;25.00;67.64;101695.84;5076397;28;20389;-88
2023/09/26 10:08:05;;;;;;;;;;;;;;;24.99;67.03;101702.03;5059216;28;19970;-87
2023/09/26 10:10:31;;;;;;;;;;;;;;;24.96;67.26;101702.91;5074460;28;20408;-86
2023/09/26 10:12:56;;;;;;;;;;;;;;;24.98;67.10;101702.94;5058716;28;19912;-87
2023/09/26 10:15:22;;;;;;;;;;;;;;;24.94;66.94;101715.38;5075798;28;20391;-88
2023/09/26 10:17:51;;;;;;;;;;;;;;;24.96;67.02;101713.59;5093267;28;19918;-89
2023/09/26 10:20:16;;;;;;;;;;;;;;;24.96;67.13;101720.72;5076278;28;19919;-89
2023/09/26 10:22:43;;;;;;;;;;;;;;;24.96;67.51;101715.38;5058357;28;19912;-88
2023/09/26 10:25:19;;;;;;;;;;;;;;;24.94;67.79;101709.13;5075914;28;20369;-88
2023/09/26 10:27:45;;;;;;;;;;;;;;;24.97;67.33;101709.16;5072319;28;19920;-86
2023/09/26 10:30:10;;;;;;;;;;;;;;;24.97;67.75;101710.03;5068175;28;20306;-88
2023/09/26 10:32:42;;;;;;;;;;;;;;;25.00;67.77;101701.16;5075075;28;20498;-89
2023/09/26 10:35:14;;;;;;;;;;;;;;;24.98;67.46;101700.25;5075734;28;19911;-89
2023/09/26 10:37:40;;;;;;;;;;;;;;;24.97;67.62;101699.34;5093283;28;19923;-89
2023/09/26 10:40:08;;;;;;;;;;;;;;;25.07;66.89;101691.44;5055176;28;19913;-89
2023/09/26 10:42:35;;;;;;;;;;;;;;;25.02;66.74;101691.41;5057828;28;19912;-89
2023/09/26 10:45:01;;;;;;;;;;;;;;;24.96;66.57;101680.66;5069146;28;20025;-89
2023/09/26 10:47:26;;;;;;;;;;;;;;;24.98;67.05;101701.16;5092848;28;20401;-89
2023/09/26 10:49:51;;;;;;;;;;;;;;;25.01;66.69;101688.69;5058305;28;19912;-89
2023/09/26 10:52:17;;;;;;;;;;;;;;;24.97;66.63;101698.47;5093168;28;19919;-89
2023/09/26 10:54:42;;;;;;;;;;;;;;;24.96;67.11;101694.91;5058000;28;19966;-88
2023/09/26 10:57:08;;;;;;;;;;;;;;;24.97;66.92;101687.75;5054846;28;19913;-88
2023/09/26 10:59:34;;;;;;;;;;;;;;;24.94;66.50;101688.63;5068853;28;19912;-88
2023/09/26 11:02:00;;;;;;;;;;;;;;;24.96;66.50;101675.31;5062873;28;19959;-88
2023/09/26 11:04:31;;;;;;;;;;;;;;;24.99;65.87;101667.28;5057886;28;19984;-88
2023/09/26 11:06:57;;;;;;;;;;;;;;;24.97;65.67;101680.63;5075018;28;20370;-88
2023/09/26 11:09:22;;;;;;;;;;;;;;;24.98;66.13;101670.88;5074560;28;19912;-88
2023/09/26 11:11:48;;;;;;;;;;;;;;;24.99;65.91;101669.97;5074546;28;19912;-87
2023/09/26 11:14:13;;;;;;;;;;;;;;;24.98;65.81;101678.88;5092521;28;19920;-88
2023/09/26 11:16:42;;;;;;;;;;;;;;;25.05;65.37;101682.50;5071535;28;19970;-88
2023/09/26 11:19:09;;;;;;;;;;;;;;;25.06;65.28;101663.81;5092530;28;20014;-88
2023/09/26 11:21:35;;;;;;;;;;;;;;;25.02;65.08;101653.97;5074679;28;19966;-87
2023/09/26 11:24:16;;;;;;;;;;;;;;;25.00;64.83;101666.44;5074147;28;19912;-88
2023/09/26 11:26:41;;;;;;;;;;;;;;;25.04;64.90;101670.94;5074464;28;19954;-88
2023/09/26 11:29:07;;;;;;;;;;;;;;;25.04;65.50;101670.94;5056607;28;20358;-88
2023/09/26 11:31:33;;;;;;;;;;;;;;;25.06;64.87;101678.94;5092187;28;19912;-88
2023/09/26 11:33:58;;;;;;;;;;;;;;;25.07;64.97;101672.72;5071918;28;19920;-88
2023/09/26 11:36:24;;;;;;;;;;;;;;;25.09;65.83;101678.97;5058205;28;20374;-88
2023/09/26 11:38:49;;;;;;;;;;;;;;;25.14;65.13;101678.09;5072255;28;19935;-86
2023/09/26 11:41:15;;;;;;;;;;;;;;;25.12;66.19;101685.22;5088074;28;20007;-88
2023/09/26 11:43:40;;;;;;;;;;;;;;;25.15;65.48;101687.94;5090846;28;20346;-88
2023/09/26 11:46:06;;;;;;;;;;;;;;;25.19;65.93;101687.09;5071137;28;19969;-88
2023/09/26 11:48:40;;;;;;;;;;;;;;;25.23;65.78;101692.47;5072142;28;20463;-89
2023/09/26 11:51:05;;;;;;;;;;;;;;;25.19;65.71;101684.41;5053505;28;19916;-87
2023/09/26 11:53:31;;;;;;;;;;;;;;;25.22;66.14;101693.38;5071278;28;19969;-87
2023/09/26 11:55:57;;;;;;;;;;;;;;;25.27;66.02;101697.84;5074098;28;20460;-88
2023/09/26 11:58:22;;;;;;;;;;;;;;;25.26;65.86;101696.06;5053780;28;19919;-87
2023/09/26 12:00:48;;;;;;;;;;;;;;;25.26;65.01;101700.53;5073238;28;19916;-87
2023/09/26 12:03:13;;;;;;;;;;;;;;;25.27;65.11;101699.63;5056370;28;19967;-87
2023/09/26 12:05:39;;;;;;;;;;;;;;;25.27;65.26;101710.34;5072335;28;19922;-87
2023/09/26 12:08:04;;;;;;;;;;;;;;;25.33;65.21;101699.69;5073617;28;20022;-88
2023/09/26 12:10:30;;;;;;;;;;;;;;;25.32;65.19;101700.59;5073675;28;19924;-88
2023/09/26 12:12:56;;;;;;;;;;;;;;;25.35;65.18;101692.56;5073242;28;19947;-88
2023/09/26 12:15:22;;;;;;;;;;;;;;;25.33;65.02;101680.97;5091849;28;19991;-87
2023/09/26 12:17:48;;;;;;;;;;;;;;;25.36;65.25;101687.25;5073814;28;19982;-87
2023/09/26 12:20:21;;;;;;;;;;;;;;;25.34;65.13;101682.78;5072118;28;19948;-87
2023/09/26 12:22:47;;;;;;;;;;;;;;;25.32;65.74;101684.53;5059313;28;19916;-87
2023/09/26 12:25:12;;;;;;;;;;;;;;;25.33;65.13;101692.56;5091656;28;19912;-88
2023/09/26 12:27:37;;;;;;;;;;;;;;;25.37;64.86;101690.81;5056613;28;19920;-88
2023/09/26 12:30:03;;;;;;;;;;;;;;;25.35;65.03;101704.16;5053684;28;19913;-89
2023/09/26 12:32:30;;;;;;;;;;;;;;;25.39;64.95;101700.63;5071367;28;20352;-91